createdAt,value
2023-02-04T00:00:14.705Z,38.70
2023-02-04T00:02:42.278Z,35.53
2023-02-04T00:05:10.464Z,39.87
2023-02-04T00:07:37.725Z,32.40
2023-02-04T00:10:06.710Z,32.53
2023-02-04T00:12:34.588Z,29.10
2023-02-04T00:15:01.824Z,34.30
2023-02-04T00:17:28.692Z,40.57
2023-02-04T00:19:55.588Z,37.30
2023-02-04T00:22:22.916Z,33.53
2023-02-04T00:24:50.694Z,41.40
2023-02-04T00:27:17.905Z,27.67
2023-02-04T00:29:44.760Z,40.03
2023-02-04T00:32:11.886Z,26.27
2023-02-04T00:34:39.196Z,32.97
2023-02-04T00:37:06.042Z,22.03
2023-02-04T00:39:33.049Z,31.80
2023-02-04T00:41:59.896Z,40.17
2023-02-04T00:44:26.782Z,27.57
2023-02-04T00:46:53.598Z,39.30
2023-02-04T00:49:20.465Z,48.20
2023-02-04T00:51:47.391Z,34.83
2023-02-04T00:54:17.414Z,41.93
2023-02-04T00:56:44.935Z,28.50
2023-02-04T00:59:11.838Z,26.77
2023-02-04T01:01:39.124Z,36.17
2023-02-04T01:04:06.120Z,24.67
2023-02-04T01:06:33.054Z,20.47
2023-02-04T01:09:00.118Z,23.87
2023-02-04T01:11:27.495Z,34.30
2023-02-04T01:13:54.769Z,31.00
2023-02-04T01:16:21.680Z,26.17
2023-02-04T01:18:48.795Z,25.77
2023-02-04T01:21:15.655Z,26.47
2023-02-04T01:23:42.501Z,35.53
2023-02-04T01:26:09.411Z,15.80
2023-02-04T01:28:36.271Z,40.23
2023-02-04T01:31:03.722Z,31.60
2023-02-04T01:33:30.864Z,28.27
2023-02-04T01:35:57.745Z,38.47
2023-02-04T01:38:24.796Z,31.87
2023-02-04T01:40:52.128Z,27.03
2023-02-04T01:43:19.426Z,28.83
2023-02-04T01:45:46.616Z,29.67
2023-02-04T01:48:20.212Z,27.70
2023-02-04T01:50:53.056Z,24.73
2023-02-04T01:53:24.983Z,23.10
2023-02-04T01:55:52.864Z,24.53
2023-02-04T01:58:19.916Z,37.63
2023-02-04T02:00:46.921Z,31.13
2023-02-04T02:03:14.028Z,21.27
2023-02-04T02:05:50.500Z,34.03
2023-02-04T02:08:17.764Z,30.27
2023-02-04T02:10:47.176Z,25.77
2023-02-04T02:13:17.812Z,32.67
2023-02-04T02:15:44.826Z,26.57
2023-02-04T02:18:12.308Z,31.27
2023-02-04T02:20:39.409Z,34.73
2023-02-04T02:23:38.167Z,37.13
2023-02-04T02:26:05.234Z,37.30
2023-02-04T02:28:32.116Z,23.57
2023-02-04T02:30:59.359Z,43.10
2023-02-04T02:33:26.668Z,31.30
2023-02-04T02:35:53.703Z,47.00
2023-02-04T02:38:20.988Z,31.43
2023-02-04T02:40:48.829Z,26.10
2023-02-04T02:43:18.513Z,21.77
2023-02-04T02:45:45.769Z,38.67
2023-02-04T02:48:12.812Z,34.20
2023-02-04T02:50:40.602Z,40.80
2023-02-04T02:53:15.768Z,28.10
2023-02-04T02:55:43.585Z,23.33
2023-02-04T02:58:17.130Z,26.07
2023-02-04T03:00:44.505Z,29.63
2023-02-04T03:03:16.579Z,20.97
2023-02-04T03:05:46.603Z,20.20
2023-02-04T03:08:14.983Z,21.30
2023-02-04T03:10:43.355Z,28.60
2023-02-04T03:13:12.325Z,40.23
2023-02-04T03:15:39.629Z,25.97
2023-02-04T03:18:06.998Z,30.33
2023-02-04T03:20:34.647Z,29.57
2023-02-04T03:23:01.643Z,32.27
2023-02-04T03:25:28.980Z,25.90
2023-02-04T03:27:58.221Z,31.03
2023-02-04T03:30:26.912Z,32.23
2023-02-04T03:32:54.644Z,28.00
2023-02-04T03:35:21.645Z,34.23
2023-02-04T03:37:48.531Z,23.97
2023-02-04T03:40:15.904Z,36.10
2023-02-04T03:42:42.832Z,45.83
2023-02-04T03:45:10.074Z,28.03
2023-02-04T03:47:37.197Z,33.70
2023-02-04T03:50:05.015Z,25.10
2023-02-04T03:52:32.039Z,35.43
2023-02-04T03:54:58.990Z,30.90
2023-02-04T03:57:25.866Z,23.97
2023-02-04T03:59:52.711Z,37.40
2023-02-04T04:02:19.556Z,25.67
2023-02-04T04:04:46.437Z,39.83
2023-02-04T04:07:13.329Z,27.47
2023-02-04T04:09:40.192Z,38.70
2023-02-04T04:12:06.995Z,32.33
2023-02-04T04:14:33.894Z,22.53
2023-02-04T04:17:00.804Z,31.63
2023-02-04T04:19:27.850Z,22.03
2023-02-04T04:21:54.697Z,29.23
2023-02-04T04:24:21.537Z,27.73
2023-02-04T04:26:48.355Z,43.40
2023-02-04T04:29:15.268Z,28.37
2023-02-04T04:31:42.563Z,23.90
2023-02-04T04:34:09.468Z,28.80
2023-02-04T04:36:36.410Z,38.93
2023-02-04T04:39:03.975Z,32.83
2023-02-04T04:41:30.833Z,21.80
2023-02-04T04:43:57.655Z,30.90
2023-02-04T04:46:24.542Z,36.87
2023-02-04T04:48:51.380Z,20.33
2023-02-04T04:51:18.383Z,30.40
2023-02-04T04:53:45.270Z,33.43
2023-02-04T04:56:12.131Z,28.73
2023-02-04T04:58:39.029Z,31.27
2023-02-04T05:01:05.963Z,23.43
2023-02-04T05:03:32.840Z,49.70
2023-02-04T05:05:59.716Z,29.40
2023-02-04T05:08:26.553Z,36.77
2023-02-04T05:10:53.460Z,31.40
2023-02-04T05:13:20.359Z,18.27
2023-02-04T05:15:47.236Z,36.73
2023-02-04T05:18:14.126Z,31.03
2023-02-04T05:20:41.015Z,25.97
2023-02-04T05:23:07.856Z,25.87
2023-02-04T05:25:34.712Z,24.67
2023-02-04T05:28:01.662Z,21.17
2023-02-04T05:30:28.957Z,32.90
2023-02-04T05:32:56.326Z,31.33
2023-02-04T05:35:23.253Z,21.60
2023-02-04T05:37:50.126Z,32.10
2023-02-04T05:40:17.211Z,32.43
2023-02-04T05:42:44.087Z,29.97
2023-02-04T05:45:18.953Z,41.33
2023-02-04T05:47:46.197Z,21.97
2023-02-04T05:50:13.381Z,47.30
2023-02-04T05:52:40.588Z,40.40
2023-02-04T05:55:08.655Z,23.17
2023-02-04T05:57:35.582Z,27.30
2023-02-04T06:00:02.700Z,28.97
2023-02-04T06:02:29.656Z,26.30
2023-02-04T06:04:56.560Z,33.90
2023-02-04T06:07:23.414Z,39.10
2023-02-04T06:09:50.277Z,34.33
2023-02-04T06:12:17.312Z,34.13
2023-02-04T06:14:44.155Z,36.50
2023-02-04T06:17:11.120Z,24.53
2023-02-04T06:19:37.961Z,20.57
2023-02-04T06:22:04.856Z,26.63
2023-02-04T06:24:31.722Z,14.67
2023-02-04T06:26:58.542Z,26.83
2023-02-04T06:29:25.664Z,35.57
2023-02-04T06:31:52.783Z,47.93
2023-02-04T06:34:19.698Z,24.47
2023-02-04T06:36:46.610Z,35.57
2023-02-04T06:39:13.524Z,34.43
2023-02-04T06:41:40.344Z,32.77
2023-02-04T06:44:07.177Z,35.93
2023-02-04T06:46:34.260Z,28.40
2023-02-04T06:49:01.113Z,35.17
2023-02-04T06:51:28.245Z,33.03
2023-02-04T06:53:55.145Z,31.23
2023-02-04T06:56:22.043Z,33.43
2023-02-04T06:58:48.875Z,36.23
2023-02-04T07:01:15.807Z,39.07
2023-02-04T07:03:42.673Z,29.20
2023-02-04T07:06:09.513Z,38.70
2023-02-04T07:08:36.678Z,35.13
2023-02-04T07:11:03.606Z,30.73
2023-02-04T07:13:30.504Z,24.87
2023-02-04T07:15:57.469Z,23.83
2023-02-04T07:18:24.399Z,30.47
2023-02-04T07:20:51.375Z,32.53
2023-02-04T07:23:18.246Z,35.50
2023-02-04T07:25:45.164Z,32.60
2023-02-04T07:28:12.210Z,22.73
2023-02-04T07:30:39.621Z,31.10
2023-02-04T07:33:06.908Z,27.47
2023-02-04T07:35:34.317Z,18.30
2023-02-04T07:38:01.261Z,43.37
2023-02-04T07:40:28.207Z,31.00
2023-02-04T07:42:55.191Z,29.37
2023-02-04T07:45:22.047Z,33.47
2023-02-04T07:47:49.005Z,41.07
2023-02-04T07:50:16.440Z,48.37
2023-02-04T07:52:43.315Z,44.97
2023-02-04T07:55:11.546Z,38.20
2023-02-04T07:57:38.438Z,28.80
2023-02-04T08:00:06.074Z,32.30
2023-02-04T08:02:32.964Z,41.50
2023-02-04T08:04:59.984Z,43.73
2023-02-04T08:07:26.876Z,36.40
2023-02-04T08:09:53.936Z,46.33
2023-02-04T08:12:20.865Z,44.23
2023-02-04T08:14:47.865Z,38.27
2023-02-04T08:17:15.172Z,59.37
2023-02-04T08:19:42.886Z,37.47
2023-02-04T08:22:10.746Z,37.17
2023-02-04T08:24:37.774Z,35.37
2023-02-04T08:27:04.987Z,30.67
2023-02-04T08:29:31.949Z,32.00
2023-02-04T08:31:59.870Z,39.93
2023-02-04T08:34:27.105Z,26.63
2023-02-04T08:36:54.366Z,26.63
2023-02-04T08:39:21.382Z,33.33
2023-02-04T08:41:49.345Z,41.57
2023-02-04T08:44:16.259Z,24.90
2023-02-04T08:46:43.207Z,21.50
2023-02-04T08:49:10.097Z,20.60
2023-02-04T08:51:36.957Z,43.10
2023-02-04T08:54:03.969Z,33.40
2023-02-04T08:56:31.330Z,38.40
2023-02-04T08:58:58.230Z,29.10
2023-02-04T09:01:25.273Z,42.57
2023-02-04T09:03:52.282Z,33.63
2023-02-04T09:06:19.355Z,38.80
2023-02-04T09:08:46.204Z,33.07
2023-02-04T09:11:13.110Z,29.23
2023-02-04T09:13:40.016Z,23.37
2023-02-04T09:16:07.244Z,26.73
2023-02-04T09:18:34.766Z,33.83
2023-02-04T09:21:01.671Z,27.10
2023-02-04T09:23:28.657Z,29.87
2023-02-04T09:25:55.587Z,32.00
2023-02-04T09:28:22.579Z,31.10
2023-02-04T09:30:49.881Z,35.03
2023-02-04T09:33:17.389Z,34.23
2023-02-04T09:35:44.751Z,42.20
2023-02-04T09:38:11.648Z,33.20
2023-02-04T09:40:44.552Z,33.10
2023-02-04T09:43:16.663Z,30.10
2023-02-04T09:45:43.574Z,25.03
2023-02-04T09:48:13.252Z,21.40
2023-02-04T09:50:40.274Z,21.30
2023-02-04T09:53:07.994Z,42.13
2023-02-04T09:55:40.515Z,38.57
2023-02-04T09:58:17.476Z,28.47
2023-02-04T10:00:52.223Z,38.60
2023-02-04T10:03:22.357Z,30.67
2023-02-04T10:05:50.509Z,33.00
2023-02-04T10:08:26.740Z,37.47
2023-02-04T10:10:53.796Z,37.13
2023-02-04T10:13:24.716Z,27.83
2023-02-04T10:15:53.069Z,33.00
2023-02-04T10:18:29.050Z,30.67
2023-02-04T10:21:06.752Z,25.30
2023-02-04T10:23:33.597Z,36.20
2023-02-04T10:26:00.485Z,31.77
2023-02-04T10:28:35.158Z,26.20
2023-02-04T10:31:02.562Z,36.90
2023-02-04T10:33:29.866Z,25.47
2023-02-04T10:35:57.247Z,31.13
2023-02-04T10:38:24.634Z,35.83
2023-02-04T10:41:05.748Z,31.10
2023-02-04T10:43:32.871Z,38.00
2023-02-04T10:46:02.651Z,28.27
2023-02-04T10:48:31.098Z,25.07
2023-02-04T10:50:59.302Z,22.30
2023-02-04T10:53:45.301Z,37.47
2023-02-04T10:56:18.839Z,36.70
2023-02-04T10:58:45.933Z,35.20
2023-02-04T11:01:15.730Z,25.70
2023-02-04T11:03:45.360Z,32.70
2023-02-04T11:06:20.431Z,41.23
2023-02-04T11:08:48.428Z,16.70
2023-02-04T11:11:21.339Z,22.27
2023-02-04T11:14:19.047Z,37.43
2023-02-04T11:16:49.445Z,25.87
2023-02-04T11:19:30.340Z,20.60
2023-02-04T11:22:06.506Z,21.50
2023-02-04T11:24:34.352Z,30.77
2023-02-04T11:27:19.268Z,33.30
2023-02-04T11:29:47.951Z,25.83
2023-02-04T11:32:38.671Z,39.87
2023-02-04T11:35:26.074Z,20.80
2023-02-04T11:37:54.547Z,28.20
2023-02-04T11:40:36.876Z,21.07
2023-02-04T11:43:13.561Z,20.43
2023-02-04T11:45:41.376Z,19.90
2023-02-04T11:48:17.749Z,12.70
2023-02-04T11:51:10.275Z,22.17
2023-02-04T11:53:37.080Z,18.00
2023-02-04T11:56:04.186Z,12.63
2023-02-04T11:58:32.144Z,20.20
2023-02-04T12:00:59.395Z,13.50
2023-02-04T12:03:27.320Z,16.43
2023-02-04T12:05:57.401Z,15.30
2023-02-04T12:08:36.890Z,15.30
2023-02-04T12:11:30.634Z,14.87
2023-02-04T12:14:06.220Z,17.67
2023-02-04T12:16:46.144Z,27.30
2023-02-04T12:19:13.788Z,16.23
2023-02-04T12:21:41.190Z,20.87
2023-02-04T12:24:08.292Z,12.90
2023-02-04T12:26:41.130Z,11.57
2023-02-04T12:29:08.532Z,21.00
2023-02-04T12:31:36.250Z,24.80
2023-02-04T12:34:03.531Z,16.50
2023-02-04T12:36:30.553Z,14.00
2023-02-04T12:39:00.666Z,19.40
2023-02-04T12:41:28.458Z,18.30
2023-02-04T12:43:55.818Z,13.87
2023-02-04T12:46:23.507Z,18.80
2023-02-04T12:48:50.607Z,11.07
2023-02-04T12:51:17.650Z,23.73
2023-02-04T12:53:44.588Z,18.80
2023-02-04T12:56:11.494Z,21.30
2023-02-04T12:58:38.483Z,12.60
2023-02-04T13:01:08.416Z,31.10
2023-02-04T13:03:35.557Z,19.80
2023-02-04T13:06:02.575Z,23.67
2023-02-04T13:08:29.453Z,17.03
2023-02-04T13:10:56.366Z,12.97
2023-02-04T13:13:23.512Z,12.43
2023-02-04T13:15:50.577Z,11.23
2023-02-04T13:18:18.598Z,18.87
2023-02-04T13:20:46.439Z,18.73
2023-02-04T13:23:14.152Z,13.40
2023-02-04T13:25:41.071Z,20.63
2023-02-04T13:28:08.132Z,14.73
2023-02-04T13:30:35.407Z,22.10
2023-02-04T13:33:03.826Z,21.73
2023-02-04T13:35:31.600Z,11.67
2023-02-04T13:37:58.644Z,13.10
2023-02-04T13:40:25.566Z,13.20
2023-02-04T13:42:52.389Z,11.50
2023-02-04T13:45:19.499Z,16.43
2023-02-04T13:47:48.105Z,17.83
2023-02-04T13:50:16.574Z,25.90
2023-02-04T13:52:43.654Z,14.13
2023-02-04T13:55:10.747Z,14.87
2023-02-04T13:57:38.026Z,15.43
2023-02-04T14:00:07.291Z,16.53
2023-02-04T14:02:34.647Z,18.03
2023-02-04T14:05:01.872Z,24.60
2023-02-04T14:07:30.588Z,16.70
2023-02-04T14:09:57.499Z,18.67
2023-02-04T14:12:24.356Z,15.60
2023-02-04T14:14:51.348Z,13.60
2023-02-04T14:17:18.255Z,19.27
2023-02-04T14:19:45.123Z,20.17
2023-02-04T14:22:13.367Z,14.10
2023-02-04T14:24:42.662Z,14.97
2023-02-04T14:27:10.729Z,19.40
2023-02-04T14:29:37.701Z,15.33
2023-02-04T14:32:05.337Z,20.23
2023-02-04T14:34:34.328Z,15.53
2023-02-04T14:37:02.555Z,18.97
2023-02-04T14:39:29.459Z,29.80
2023-02-04T14:41:56.336Z,16.03
2023-02-04T14:44:23.238Z,16.07
2023-02-04T14:46:50.407Z,17.07
2023-02-04T14:49:17.813Z,18.43
2023-02-04T14:51:44.818Z,19.67
2023-02-04T14:54:11.677Z,11.50
2023-02-04T14:56:38.742Z,20.10
2023-02-04T14:59:05.874Z,8.37
2023-02-04T15:01:32.880Z,11.73
2023-02-04T15:03:59.874Z,14.10
2023-02-04T15:06:27.278Z,15.83
2023-02-04T15:08:54.456Z,15.10
2023-02-04T15:11:21.784Z,27.30
2023-02-04T15:13:48.720Z,7.67
2023-02-04T15:16:15.750Z,18.03
2023-02-04T15:18:42.942Z,17.13
2023-02-04T15:21:10.208Z,20.57
2023-02-04T15:23:37.312Z,16.13
2023-02-04T15:26:04.337Z,15.97
2023-02-04T15:28:31.520Z,16.50
2023-02-04T15:30:59.215Z,7.60
2023-02-04T15:33:26.888Z,12.40
2023-02-04T15:35:54.094Z,14.83
2023-02-04T15:38:20.998Z,8.00
2023-02-04T15:40:48.190Z,14.30
2023-02-04T15:43:15.201Z,9.90
2023-02-04T15:45:44.010Z,19.67
2023-02-04T15:48:11.071Z,12.87
2023-02-04T15:50:40.551Z,21.03
2023-02-04T15:53:07.479Z,11.20
2023-02-04T15:55:34.568Z,16.13
2023-02-04T15:58:01.578Z,8.53
2023-02-04T16:00:28.599Z,17.67
2023-02-04T16:02:55.609Z,12.40
2023-02-04T16:05:22.637Z,8.30
2023-02-04T16:07:49.706Z,12.67
2023-02-04T16:10:18.388Z,9.57
2023-02-04T16:12:47.455Z,11.90
2023-02-04T16:15:15.149Z,16.60
2023-02-04T16:17:42.091Z,15.57
2023-02-04T16:20:10.699Z,12.63
2023-02-04T16:22:37.668Z,20.27
2023-02-04T16:25:05.461Z,17.03
2023-02-04T16:27:33.816Z,10.27
2023-02-04T16:30:01.017Z,17.47
2023-02-04T16:32:28.743Z,5.67
2023-02-04T16:34:56.983Z,10.03
2023-02-04T16:37:23.921Z,9.63
2023-02-04T16:39:51.652Z,15.40
2023-02-04T16:42:19.111Z,17.73
2023-02-04T16:44:46.097Z,11.30
2023-02-04T16:47:13.130Z,18.77
2023-02-04T16:49:40.299Z,16.10
2023-02-04T16:52:07.259Z,13.37
2023-02-04T16:54:35.179Z,8.37
2023-02-04T16:57:03.459Z,11.60
2023-02-04T16:59:31.233Z,13.83
2023-02-04T17:01:58.450Z,10.53
2023-02-04T17:04:25.571Z,11.47
2023-02-04T17:06:52.818Z,12.80
2023-02-04T17:09:20.115Z,8.23
2023-02-04T17:11:47.260Z,14.77
2023-02-04T17:14:17.577Z,11.90
2023-02-04T17:16:45.280Z,13.27
2023-02-04T17:19:12.899Z,19.47
2023-02-04T17:21:40.564Z,11.93
2023-02-04T17:24:09.265Z,25.30
2023-02-04T17:26:37.752Z,21.07
2023-02-04T17:29:09.736Z,19.93
2023-02-04T17:31:51.304Z,20.90
2023-02-04T17:34:29.380Z,29.20
2023-02-04T17:36:58.214Z,15.23
2023-02-04T17:39:28.215Z,17.20
2023-02-04T17:41:59.030Z,20.47
2023-02-04T17:44:27.726Z,17.40
2023-02-04T17:46:55.342Z,13.80
2023-02-04T17:49:22.826Z,12.90
2023-02-04T17:51:52.951Z,21.10
2023-02-04T17:54:20.165Z,27.53
2023-02-04T17:56:47.362Z,18.90
2023-02-04T17:59:14.418Z,23.43
2023-02-04T18:01:42.699Z,17.37
2023-02-04T18:04:14.143Z,11.60
2023-02-04T18:06:41.269Z,11.90
2023-02-04T18:09:18.032Z,12.93
2023-02-04T18:11:46.000Z,24.00
2023-02-04T18:14:25.708Z,27.10
2023-02-04T18:16:57.845Z,31.23
2023-02-04T18:19:37.028Z,28.40
2023-02-04T18:22:11.710Z,25.00
2023-02-04T18:24:39.939Z,21.13
2023-02-04T18:27:18.079Z,17.67
2023-02-04T18:29:50.542Z,22.63
2023-02-04T18:32:57.127Z,13.97
2023-02-04T18:35:54.790Z,8.77
2023-02-04T18:38:39.770Z,12.80
2023-02-04T18:41:41.423Z,10.40
2023-02-04T18:44:33.023Z,9.20
2023-02-04T18:47:00.928Z,13.80
2023-02-04T18:49:33.937Z,9.37
2023-02-04T18:52:19.363Z,18.53
2023-02-04T18:54:56.810Z,10.70
2023-02-04T18:57:29.303Z,14.97
2023-02-04T19:00:21.941Z,9.10
2023-02-04T19:02:53.065Z,10.80
2023-02-04T19:05:49.773Z,11.90
2023-02-04T19:08:44.531Z,16.77
2023-02-04T19:11:41.013Z,14.27
2023-02-04T19:14:40.071Z,14.40
2023-02-04T19:17:26.558Z,11.10
2023-02-04T19:20:08.466Z,14.13
2023-02-04T19:22:49.733Z,11.27
2023-02-04T19:25:29.688Z,13.30
2023-02-04T19:28:17.630Z,19.37
2023-02-04T19:30:51.825Z,27.07
2023-02-04T19:33:42.670Z,15.80
2023-02-04T19:36:39.957Z,15.03
2023-02-04T19:39:39.459Z,14.80
2023-02-04T19:42:34.541Z,18.23
2023-02-04T19:45:23.063Z,14.03
2023-02-04T19:47:55.218Z,16.50
2023-02-04T19:50:32.126Z,27.33
2023-02-04T19:53:23.243Z,19.73
2023-02-04T19:55:52.193Z,15.30
2023-02-04T19:58:22.504Z,18.60
2023-02-04T20:01:00.966Z,15.57
2023-02-04T20:03:46.456Z,16.37
2023-02-04T20:06:37.590Z,14.20
2023-02-04T20:09:29.673Z,23.30
2023-02-04T20:12:08.585Z,23.03
2023-02-04T20:15:19.153Z,18.30
2023-02-04T20:17:48.138Z,20.73
2023-02-04T20:20:29.477Z,22.57
2023-02-04T20:23:01.122Z,32.80
2023-02-04T20:26:01.190Z,33.30
2023-02-04T20:28:40.053Z,28.47
2023-02-04T20:31:37.097Z,27.73
2023-02-04T20:34:23.491Z,18.63
2023-02-04T20:36:52.293Z,19.70
2023-02-04T20:39:33.114Z,19.33
2023-02-04T20:42:40.031Z,17.77
2023-02-04T20:45:45.448Z,22.80
2023-02-04T20:48:31.445Z,21.57
2023-02-04T20:51:01.364Z,27.07
2023-02-04T20:53:52.842Z,25.40
2023-02-04T20:56:37.476Z,22.33
2023-02-04T20:59:34.699Z,24.03
2023-02-04T21:02:14.684Z,23.13
2023-02-04T21:04:47.239Z,22.23
2023-02-04T21:07:18.352Z,22.87
2023-02-04T21:09:45.299Z,20.60
2023-02-04T21:12:12.428Z,20.73
2023-02-04T21:14:39.972Z,28.03
2023-02-04T21:17:07.871Z,21.57
2023-02-04T21:19:35.418Z,20.30
2023-02-04T21:22:02.621Z,20.50
2023-02-04T21:24:32.019Z,21.50
2023-02-04T21:26:59.141Z,19.37
2023-02-04T21:29:26.351Z,24.00
2023-02-04T21:31:56.780Z,20.70
2023-02-04T21:34:23.935Z,23.63
2023-02-04T21:36:50.868Z,23.17
2023-02-04T21:39:17.926Z,18.53
2023-02-04T21:41:44.888Z,20.67
2023-02-04T21:44:11.984Z,25.57
2023-02-04T21:46:39.033Z,22.40
2023-02-04T21:49:06.013Z,22.70
2023-02-04T21:51:32.925Z,23.43
2023-02-04T21:54:00.947Z,20.80
2023-02-04T21:56:27.965Z,20.00
2023-02-04T21:58:56.455Z,18.70
2023-02-04T22:01:23.420Z,19.30
2023-02-04T22:03:50.487Z,18.97
2023-02-04T22:06:17.484Z,18.70
2023-02-04T22:08:44.380Z,19.27
2023-02-04T22:11:11.480Z,22.40
2023-02-04T22:13:38.368Z,17.60
2023-02-04T22:16:05.605Z,19.70
2023-02-04T22:18:32.561Z,17.20
2023-02-04T22:20:59.562Z,17.37
2023-02-04T22:23:26.500Z,17.90
2023-02-04T22:25:53.398Z,17.10
2023-02-04T22:28:20.375Z,17.20
2023-02-04T22:30:47.845Z,15.63
2023-02-04T22:33:15.276Z,17.50
2023-02-04T22:35:42.265Z,17.57
2023-02-04T22:38:09.259Z,18.97
2023-02-04T22:40:36.236Z,16.00
2023-02-04T22:43:04.813Z,15.63
2023-02-04T22:45:32.047Z,15.27
2023-02-04T22:47:59.129Z,21.40
2023-02-04T22:50:26.021Z,18.23
2023-02-04T22:52:52.963Z,15.10
2023-02-04T22:55:19.962Z,17.20
2023-02-04T22:57:46.828Z,17.23
2023-02-04T23:00:15.732Z,14.17
2023-02-04T23:02:42.667Z,17.00
2023-02-04T23:05:09.739Z,16.20
2023-02-04T23:07:36.971Z,13.80
2023-02-04T23:10:04.330Z,15.73
2023-02-04T23:12:31.329Z,15.27
2023-02-04T23:14:58.322Z,14.93
2023-02-04T23:17:25.261Z,16.53
2023-02-04T23:19:52.478Z,16.13
2023-02-04T23:22:19.424Z,16.00
2023-02-04T23:24:46.568Z,18.53
2023-02-04T23:27:13.582Z,19.20
2023-02-04T23:29:40.695Z,15.93
2023-02-04T23:32:09.175Z,16.63
2023-02-04T23:34:36.685Z,15.47
2023-02-04T23:37:04.041Z,22.67
2023-02-04T23:39:31.151Z,23.47
2023-02-04T23:41:58.034Z,22.63
2023-02-04T23:44:24.974Z,18.87
2023-02-04T23:46:51.918Z,18.27
2023-02-04T23:49:18.879Z,18.10
2023-02-04T23:51:46.181Z,16.53
2023-02-04T23:54:13.299Z,22.57
2023-02-04T23:56:40.349Z,17.93
2023-02-04T23:59:08.378Z,18.20
